Time;durP1;ratioP1;P1;durP2;ratioP2;P2;SDS_P1;SDS_P2;PMS_P1;PMS_P2;Temp;Humidity;BMP_temperature;BMP_pressure;BME280_temperature;BME280_humidity;BME280_pressure;Samples;Min_cycle;Max_cycle;Signal;HPM_P1;HPM_P2
2022/04/14 00:01:58;;;;;;;23.92;11.18;;;7.90;99.90;;;;;;5068454;28;20045;-64
2022/04/14 00:04:25;;;;;;;34.33;12.32;;;7.90;99.90;;;;;;5072998;28;20048;-65
2022/04/14 00:06:53;;;;;;;28.98;12.75;;;7.80;99.90;;;;;;5065693;28;20084;-61
2022/04/14 00:09:22;;;;;;;26.40;11.10;;;7.70;99.90;;;;;;5060112;28;20041;-62
2022/04/14 00:11:49;;;;;;;20.75;11.32;;;7.70;99.90;;;;;;5053565;28;20484;-61
2022/04/14 00:14:17;;;;;;;19.23;11.15;;;7.60;99.90;;;;;;5052754;28;20041;-64
2022/04/14 00:16:45;;;;;;;26.92;13.32;;;7.60;99.90;;;;;;5055339;28;20048;-60
2022/04/14 00:19:13;;;;;;;25.17;11.52;;;7.60;99.90;;;;;;5072760;28;20051;-60
2022/04/14 00:21:41;;;;;;;25.70;11.23;;;7.60;99.90;;;;;;5064005;28;20060;-61
2022/04/14 00:24:08;;;;;;;21.27;11.20;;;7.60;99.90;;;;;;5056978;28;20381;-60
2022/04/14 00:26:36;;;;;;;35.95;13.25;;;7.60;99.90;;;;;;5052010;28;20049;-66
2022/04/14 00:29:03;;;;;;;24.23;11.05;;;7.60;99.90;;;;;;5071067;28;20041;-65
2022/04/14 00:31:31;;;;;;;23.60;11.20;;;7.60;99.90;;;;;;5070199;28;20037;-61
2022/04/14 00:33:59;;;;;;;24.85;11.57;;;7.60;99.90;;;;;;5052635;28;20049;-60
2022/04/14 00:36:28;;;;;;;21.73;11.60;;;7.50;99.90;;;;;;5081384;28;20041;-60
2022/04/14 00:38:56;;;;;;;23.60;12.43;;;7.50;99.90;;;;;;5072654;28;20059;-60
2022/04/14 00:41:23;;;;;;;25.95;13.38;;;7.40;99.90;;;;;;5053888;28;20072;-60
2022/04/14 00:43:52;;;;;;;32.45;12.95;;;7.30;99.90;;;;;;5054653;28;20472;-60
2022/04/14 00:46:21;;;;;;;30.30;13.73;;;7.20;99.90;;;;;;5052574;28;20381;-60
2022/04/14 00:48:49;;;;;;;26.48;13.15;;;7.10;99.90;;;;;;5055134;28;20067;-60
2022/04/14 00:51:17;;;;;;;26.50;12.90;;;7.10;99.90;;;;;;5068049;28;20044;-63
2022/04/14 00:53:45;;;;;;;29.67;12.73;;;7.10;99.90;;;;;;5072245;28;20048;-62
2022/04/14 00:56:12;;;;;;;28.90;13.05;;;7.10;99.90;;;;;;5072268;28;20049;-63
2022/04/14 00:58:41;;;;;;;27.00;13.00;;;7.10;99.90;;;;;;5070259;28;20066;-63
2022/04/14 01:01:08;;;;;;;24.25;12.65;;;7.00;99.90;;;;;;5058615;28;20048;-63
2022/04/14 01:03:37;;;;;;;33.67;14.00;;;7.00;99.90;;;;;;5066728;28;20045;-63
2022/04/14 01:06:04;;;;;;;28.52;13.95;;;7.00;99.90;;;;;;5068172;28;20601;-63
2022/04/14 01:08:36;;;;;;;28.45;12.85;;;6.90;99.90;;;;;;5070560;28;20037;-62
2022/04/14 01:11:04;;;;;;;27.98;12.75;;;6.90;99.90;;;;;;5072022;28;20605;-67
2022/04/14 01:13:31;;;;;;;26.08;12.95;;;6.90;99.90;;;;;;5057888;28;20498;-68
2022/04/14 01:16:00;;;;;;;27.50;13.73;;;6.90;99.90;;;;;;5071916;28;20051;-63
2022/04/14 01:18:27;;;;;;;30.38;13.88;;;6.90;99.90;;;;;;5063516;28;20041;-64
2022/04/14 01:20:55;;;;;;;28.85;13.07;;;6.90;99.90;;;;;;5071802;28;20044;-66
2022/04/14 01:23:44;;;;;;;21.17;11.63;;;6.80;99.90;;;;;;5071829;28;20063;-64
2022/04/14 01:26:12;;;;;;;23.48;11.40;;;6.80;99.90;;;;;;5058931;28;20052;-66
2022/04/14 01:28:40;;;;;;;29.00;12.75;;;6.80;99.90;;;;;;5060614;28;20416;-65
2022/04/14 01:31:07;;;;;;;29.08;13.75;;;6.80;99.90;;;;;;5062780;28;20525;-67
2022/04/14 01:33:35;;;;;;;30.50;11.85;;;6.80;99.90;;;;;;5072846;28;20040;-65
2022/04/14 01:36:03;;;;;;;30.58;13.98;;;6.70;99.90;;;;;;5072177;28;20052;-67
2022/04/14 01:38:30;;;;;;;35.67;12.80;;;6.70;99.90;;;;;;5072544;28;20048;-64
2022/04/14 01:40:58;;;;;;;32.15;12.95;;;6.60;99.90;;;;;;5072819;28;20480;-66
2022/04/14 01:43:26;;;;;;;25.83;12.73;;;6.60;99.90;;;;;;5059488;28;20037;-64
2022/04/14 01:45:54;;;;;;;31.55;12.07;;;6.50;99.90;;;;;;5047635;28;20408;-61
2022/04/14 01:48:22;;;;;;;27.02;13.25;;;6.50;99.90;;;;;;5057272;28;20052;-61
2022/04/14 01:50:50;;;;;;;25.90;11.90;;;6.40;99.90;;;;;;5059411;28;20632;-64
2022/04/14 01:53:17;;;;;;;25.88;13.25;;;6.40;99.90;;;;;;5071563;28;20476;-65
2022/04/14 01:55:45;;;;;;;29.17;13.07;;;6.40;99.90;;;;;;5069626;28;20047;-65
2022/04/14 01:58:13;;;;;;;40.00;14.63;;;6.40;99.90;;;;;;5062397;28;20044;-68
2022/04/14 02:00:41;;;;;;;30.00;14.85;;;6.30;99.90;;;;;;5070283;28;20039;-67
2022/04/14 02:03:08;;;;;;;27.05;13.27;;;6.30;99.90;;;;;;5056772;28;20514;-66
2022/04/14 02:05:36;;;;;;;24.50;12.48;;;6.30;99.90;;;;;;5072202;28;20052;-67
2022/04/14 02:08:04;;;;;;;27.85;12.73;;;6.30;99.90;;;;;;5071133;28;20047;-69
2022/04/14 02:10:32;;;;;;;26.23;13.80;;;6.30;99.90;;;;;;5070393;28;20037;-67
2022/04/14 02:12:59;;;;;;;33.67;14.90;;;6.20;99.90;;;;;;5059151;28;20049;-64
2022/04/14 02:15:28;;;;;;;24.70;12.77;;;6.20;99.90;;;;;;5069019;28;20415;-70
2022/04/14 02:17:55;;;;;;;31.90;13.20;;;6.20;99.90;;;;;;5052530;28;20396;-67
2022/04/14 02:20:23;;;;;;;27.45;12.88;;;6.20;99.90;;;;;;5052367;28;20565;-66
2022/04/14 02:22:51;;;;;;;26.33;14.02;;;6.10;99.90;;;;;;5052333;28;20044;-65
2022/04/14 02:25:18;;;;;;;23.70;12.93;;;6.10;99.90;;;;;;5055782;28;20062;-64
2022/04/14 02:27:46;;;;;;;26.13;14.05;;;6.00;99.90;;;;;;5059493;28;20041;-65
2022/04/14 02:30:13;;;;;;;31.67;14.13;;;6.00;99.90;;;;;;5071939;28;20048;-66
2022/04/14 02:32:41;;;;;;;29.75;13.82;;;6.00;99.90;;;;;;5063753;28;20048;-64
2022/04/14 02:35:10;;;;;;;34.35;13.77;;;5.90;99.90;;;;;;5051953;28;20053;-64
2022/04/14 02:37:38;;;;;;;26.45;13.32;;;6.00;99.90;;;;;;5052046;28;20048;-64
2022/04/14 02:40:06;;;;;;;32.40;14.23;;;5.90;99.90;;;;;;5051937;28;20049;-63
2022/04/14 02:42:33;;;;;;;29.80;14.63;;;5.90;99.90;;;;;;5056186;28;20048;-69
2022/04/14 02:45:01;;;;;;;24.85;12.10;;;5.80;99.90;;;;;;5071887;28;20044;-69
2022/04/14 02:47:29;;;;;;;30.77;14.43;;;5.80;99.90;;;;;;5071838;28;20048;-70
2022/04/14 02:49:57;;;;;;;29.00;13.63;;;5.70;99.90;;;;;;5052786;28;20052;-70
2022/04/14 02:52:24;;;;;;;26.80;13.85;;;5.70;99.90;;;;;;5051835;28;20048;-70
2022/04/14 02:54:52;;;;;;;29.85;14.50;;;5.70;99.90;;;;;;5069209;28;20048;-71
2022/04/14 02:57:24;;;;;;;31.13;14.75;;;5.70;99.90;;;;;;5071846;28;20055;-63
2022/04/14 02:59:52;;;;;;;29.48;13.48;;;5.70;99.90;;;;;;5070638;28;20045;-65
2022/04/14 03:02:19;;;;;;;32.03;14.27;;;5.70;99.90;;;;;;5066287;28;20048;-63
2022/04/14 03:04:47;;;;;;;28.45;14.27;;;5.70;99.90;;;;;;5061747;28;20047;-63
2022/04/14 03:07:15;;;;;;;25.48;13.50;;;5.60;99.90;;;;;;5051597;28;20041;-63
2022/04/14 03:09:43;;;;;;;26.70;13.20;;;5.60;99.90;;;;;;5051589;28;20049;-62
2022/04/14 03:12:11;;;;;;;29.50;13.13;;;5.60;99.90;;;;;;5051324;28;20048;-63
2022/04/14 03:14:39;;;;;;;26.35;12.63;;;5.60;99.90;;;;;;5062207;28;20048;-63
2022/04/14 03:17:07;;;;;;;24.73;11.32;;;5.50;99.90;;;;;;5071237;28;20048;-63
2022/04/14 03:19:34;;;;;;;25.42;13.18;;;5.50;99.90;;;;;;5069122;28;20123;-63
2022/04/14 03:22:02;;;;;;;30.90;13.10;;;5.50;99.90;;;;;;5051575;28;20068;-62
2022/04/14 03:24:30;;;;;;;31.15;14.18;;;5.40;99.90;;;;;;5051643;28;20064;-63
2022/04/14 03:26:57;;;;;;;27.80;13.05;;;5.40;99.90;;;;;;5069779;28;20055;-63
2022/04/14 03:29:28;;;;;;;26.35;13.77;;;5.30;99.90;;;;;;5071368;28;20044;-62
2022/04/14 03:31:55;;;;;;;28.58;14.00;;;5.30;99.90;;;;;;5071229;28;20056;-61
2022/04/14 03:34:23;;;;;;;29.92;12.45;;;5.30;99.90;;;;;;5071270;28;20046;-61
2022/04/14 03:36:51;;;;;;;27.52;13.10;;;5.30;99.90;;;;;;5065773;28;20051;-61
2022/04/14 03:39:18;;;;;;;28.40;13.75;;;5.30;99.90;;;;;;5066550;28;20041;-63
2022/04/14 03:41:46;;;;;;;23.85;13.15;;;5.20;99.90;;;;;;5073947;28;20059;-61
2022/04/14 03:44:13;;;;;;;32.22;14.05;;;5.30;99.90;;;;;;5074256;28;20052;-62
2022/04/14 03:46:41;;;;;;;26.33;13.68;;;5.20;99.90;;;;;;5071274;28;20040;-63
2022/04/14 03:49:09;;;;;;;26.55;13.65;;;5.20;99.90;;;;;;5075030;28;20049;-62
2022/04/14 03:51:37;;;;;;;27.50;14.48;;;5.30;99.90;;;;;;5073400;28;20052;-64
2022/04/14 03:54:05;;;;;;;26.35;14.00;;;5.30;99.90;;;;;;5057097;28;20048;-62
2022/04/14 03:56:32;;;;;;;34.20;13.98;;;5.30;99.90;;;;;;5056151;28;20045;-61
2022/04/14 03:59:00;;;;;;;29.65;14.23;;;5.30;99.90;;;;;;5062866;28;20048;-61
2022/04/14 04:01:28;;;;;;;26.08;13.80;;;5.30;99.90;;;;;;5075150;28;20415;-61
2022/04/14 04:03:55;;;;;;;30.23;15.20;;;5.30;99.90;;;;;;5073127;28;20411;-62
2022/04/14 04:06:24;;;;;;;30.90;14.68;;;5.30;99.90;;;;;;5053586;28;20056;-62
2022/04/14 04:08:52;;;;;;;28.75;14.45;;;5.30;99.90;;;;;;5054743;28;20069;-64
2022/04/14 04:11:20;;;;;;;28.55;13.63;;;5.30;99.90;;;;;;5065984;28;20045;-64
2022/04/14 04:13:47;;;;;;;28.23;13.65;;;5.20;99.90;;;;;;5061952;28;20044;-62
2022/04/14 04:16:15;;;;;;;31.20;14.00;;;5.20;99.90;;;;;;5052924;28;20033;-61
2022/04/14 04:18:42;;;;;;;26.40;13.23;;;5.20;99.90;;;;;;5054200;28;20056;-62
2022/04/14 04:21:10;;;;;;;28.40;13.60;;;5.20;99.90;;;;;;5059959;28;20045;-62
2022/04/14 04:23:38;;;;;;;29.27;14.68;;;5.10;99.90;;;;;;5056952;28;20526;-62
2022/04/14 04:26:05;;;;;;;27.45;13.20;;;5.10;99.90;;;;;;5068890;28;20048;-64
2022/04/14 04:28:33;;;;;;;28.98;13.20;;;5.10;99.90;;;;;;5058125;28;20056;-65
2022/04/14 04:31:01;;;;;;;27.60;13.48;;;5.10;99.90;;;;;;5053771;28;20045;-64
2022/04/14 04:33:29;;;;;;;32.17;13.85;;;5.00;99.90;;;;;;5062147;28;20044;-63
2022/04/14 04:35:56;;;;;;;24.85;13.18;;;5.00;99.90;;;;;;5073154;28;20402;-62
2022/04/14 04:38:24;;;;;;;28.13;14.10;;;4.90;99.90;;;;;;5071991;28;20067;-63
2022/04/14 04:40:51;;;;;;;32.50;14.10;;;4.90;99.90;;;;;;5059706;28;20422;-66
2022/04/14 04:43:19;;;;;;;32.00;14.50;;;4.90;99.90;;;;;;5063652;28;20051;-66
2022/04/14 04:45:46;;;;;;;26.35;13.48;;;4.90;99.90;;;;;;5072722;28;20429;-66
2022/04/14 04:48:14;;;;;;;25.40;12.77;;;4.90;99.90;;;;;;5042549;28;20044;-65
2022/04/14 04:50:42;;;;;;;26.58;13.25;;;4.90;99.90;;;;;;5052469;28;20040;-61
2022/04/14 04:53:10;;;;;;;29.88;14.65;;;4.90;99.90;;;;;;5065639;28;20045;-66
2022/04/14 04:55:39;;;;;;;36.22;15.80;;;4.90;99.90;;;;;;5068471;28;20047;-66
2022/04/14 04:58:07;;;;;;;29.52;13.38;;;4.80;99.90;;;;;;5064852;28;20400;-69
2022/04/14 05:00:35;;;;;;;32.80;16.67;;;4.90;99.90;;;;;;5068302;28;20056;-72
2022/04/14 05:03:10;;;;;;;31.35;17.10;;;4.90;99.90;;;;;;5062192;28;20048;-70
2022/04/14 05:05:38;;;;;;;35.00;16.10;;;4.90;99.90;;;;;;5067696;28;20369;-69
2022/04/14 05:08:07;;;;;;;33.78;14.48;;;4.90;99.90;;;;;;5066963;28;20052;-69
2022/04/14 05:10:34;;;;;;;25.10;12.90;;;4.90;99.90;;;;;;5049965;28;20048;-68
2022/04/14 05:13:02;;;;;;;26.90;14.10;;;4.90;99.90;;;;;;5050590;28;20041;-71
2022/04/14 05:15:31;;;;;;;25.88;13.00;;;4.80;99.90;;;;;;5050891;28;20045;-67
2022/04/14 05:17:58;;;;;;;27.77;14.68;;;4.90;99.90;;;;;;5051640;28;20048;-71
2022/04/14 05:20:26;;;;;;;27.60;13.30;;;4.80;99.90;;;;;;5054824;28;20045;-70
2022/04/14 05:22:54;;;;;;;27.40;14.10;;;4.80;99.90;;;;;;5067049;28;20044;-66
2022/04/14 05:25:21;;;;;;;28.90;15.20;;;4.80;99.90;;;;;;5067162;28;20079;-67
2022/04/14 05:27:49;;;;;;;34.95;15.32;;;4.80;99.90;;;;;;5066176;28;20048;-67
2022/04/14 05:30:17;;;;;;;34.33;14.93;;;4.80;99.90;;;;;;5011417;28;1221316;-68
2022/04/14 05:32:44;;;;;;;26.45;14.18;;;4.90;99.90;;;;;;5054394;28;20525;-69
2022/04/14 05:35:12;;;;;;;32.95;14.48;;;4.90;99.90;;;;;;5071098;28;20048;-68
2022/04/14 05:37:40;;;;;;;29.67;14.10;;;4.90;99.90;;;;;;5070716;28;20053;-69
2022/04/14 05:40:08;;;;;;;30.00;14.45;;;5.00;99.90;;;;;;5071137;28;20063;-64
2022/04/14 05:42:36;;;;;;;34.93;14.50;;;5.00;99.90;;;;;;5064720;28;20458;-68
2022/04/14 05:45:04;;;;;;;26.10;12.80;;;5.00;99.90;;;;;;5065242;28;20044;-70
2022/04/14 05:47:32;;;;;;;25.10;13.85;;;5.10;99.90;;;;;;5059743;28;20049;-66
2022/04/14 05:50:00;;;;;;;27.10;14.18;;;5.10;99.90;;;;;;5059771;28;20041;-69
2022/04/14 05:52:27;;;;;;;32.25;14.63;;;5.20;99.90;;;;;;5049755;28;20048;-71
2022/04/14 05:54:58;;;;;;;32.15;15.50;;;5.20;99.90;;;;;;5051161;28;20048;-69
2022/04/14 05:57:25;;;;;;;35.58;15.52;;;5.30;99.90;;;;;;5053593;28;20044;-70
2022/04/14 05:59:53;;;;;;;37.28;16.00;;;5.40;99.90;;;;;;5044409;28;20049;-70
2022/04/14 06:02:21;;;;;;;31.45;16.00;;;5.40;99.90;;;;;;5069424;28;20059;-67
2022/04/14 06:04:48;;;;;;;33.83;15.35;;;5.50;99.90;;;;;;5060097;28;20048;-69
2022/04/14 06:07:16;;;;;;;31.05;13.57;;;5.50;99.90;;;;;;5070847;28;20568;-70
2022/04/14 06:09:44;;;;;;;41.17;16.20;;;5.60;99.90;;;;;;5069774;28;20075;-69
2022/04/14 06:12:12;;;;;;;29.90;14.43;;;5.70;99.90;;;;;;5063968;28;20393;-69
2022/04/14 06:14:50;;;;;;;24.58;13.55;;;5.70;99.90;;;;;;5047929;28;20045;-71
2022/04/14 06:17:18;;;;;;;28.05;14.25;;;5.80;99.90;;;;;;5052184;28;20053;-63
2022/04/14 06:19:46;;;;;;;26.70;13.85;;;5.80;99.90;;;;;;5050753;28;20052;-66
2022/04/14 06:22:16;;;;;;;30.08;13.57;;;5.90;99.90;;;;;;5063606;28;20329;-64
2022/04/14 06:24:44;;;;;;;28.52;14.43;;;6.50;99.90;;;;;;5065784;28;20059;-65
2022/04/14 06:27:12;;;;;;;26.30;13.85;;;6.00;99.90;;;;;;5051396;28;20396;-63
2022/04/14 06:29:39;;;;;;;28.10;14.05;;;6.10;99.90;;;;;;5058485;28;20052;-63
2022/04/14 06:32:09;;;;;;;31.75;14.43;;;6.20;99.90;;;;;;5052991;28;20045;-64
2022/04/14 06:34:42;;;;;;;29.90;14.52;;;6.30;99.90;;;;;;5066256;28;20055;-64
2022/04/14 06:37:10;;;;;;;27.77;13.95;;;6.30;99.90;;;;;;5063614;28;20547;-64
2022/04/14 06:39:38;;;;;;;30.70;15.88;;;6.40;99.90;;;;;;5046735;28;20408;-63
2022/04/14 06:42:06;;;;;;;34.65;16.98;;;6.50;99.90;;;;;;5030911;28;20049;-63
2022/04/14 06:44:34;;;;;;;36.13;16.73;;;6.60;99.90;;;;;;5050077;28;20045;-64
2022/04/14 06:47:01;;;;;;;34.05;16.80;;;6.70;99.90;;;;;;5045536;28;20056;-63
2022/04/14 06:49:30;;;;;;;30.83;17.27;;;6.80;99.90;;;;;;5054761;28;20511;-71
2022/04/14 06:51:57;;;;;;;30.13;15.98;;;6.90;99.90;;;;;;5064647;28;20056;-63
2022/04/14 06:54:25;;;;;;;30.85;16.90;;;7.00;99.90;;;;;;5059120;28;20066;-64
2022/04/14 06:56:53;;;;;;;31.35;17.15;;;7.10;99.90;;;;;;5056697;28;20041;-65
2022/04/14 06:59:23;;;;;;;32.65;16.90;;;7.20;99.90;;;;;;5058736;28;20048;-65
2022/04/14 07:01:54;;;;;;;33.65;16.75;;;7.30;99.90;;;;;;5047379;28;20048;-67
2022/04/14 07:04:22;;;;;;;27.58;15.80;;;7.40;99.90;;;;;;5057071;28;20047;-64
2022/04/14 07:06:49;;;;;;;27.67;15.05;;;7.60;99.90;;;;;;5065793;28;20059;-66
2022/04/14 07:09:17;;;;;;;19.20;11.68;;;7.70;99.90;;;;;;5061990;28;20048;-69
2022/04/14 07:11:45;;;;;;;21.13;12.20;;;7.90;99.90;;;;;;5058591;28;20052;-67
2022/04/14 07:14:16;;;;;;;23.85;12.75;;;8.00;99.90;;;;;;5069442;28;20594;-66
2022/04/14 07:16:44;;;;;;;21.40;12.25;;;8.20;99.90;;;;;;5049479;28;20428;-63
2022/04/14 07:19:12;;;;;;;18.63;11.30;;;8.30;99.90;;;;;;5057355;28;20049;-62
2022/04/14 07:21:39;;;;;;;19.23;10.77;;;8.40;99.90;;;;;;5052435;28;20060;-61
2022/04/14 07:24:07;;;;;;;21.15;11.70;;;8.50;99.90;;;;;;5061299;28;20051;-68
2022/04/14 07:26:36;;;;;;;15.93;9.27;;;8.50;99.90;;;;;;5047643;28;20048;-66
2022/04/14 07:29:04;;;;;;;16.80;9.75;;;8.60;99.90;;;;;;5057031;28;20052;-64
2022/04/14 07:31:32;;;;;;;16.77;8.77;;;8.70;99.90;;;;;;5056195;28;20053;-63
2022/04/14 07:34:00;;;;;;;16.40;8.18;;;8.80;99.90;;;;;;5067202;28;20044;-64
2022/04/14 07:36:30;;;;;;;13.73;8.13;;;8.80;99.90;;;;;;5054695;28;20068;-62
2022/04/14 07:39:04;;;;;;;12.25;5.07;;;8.90;99.90;;;;;;5054360;28;20052;-64
2022/04/14 07:41:32;;;;;;;8.07;4.53;;;9.00;99.90;;;;;;5059988;28;20056;-67
2022/04/14 07:43:59;;;;;;;8.73;4.40;;;9.00;99.90;;;;;;5049545;28;20496;-66
2022/04/14 07:46:30;;;;;;;11.10;4.55;;;9.00;99.90;;;;;;5060748;28;20071;-63
2022/04/14 07:48:58;;;;;;;6.57;3.65;;;9.10;99.90;;;;;;5058920;28;20056;-69
2022/04/14 07:51:26;;;;;;;7.53;3.33;;;9.20;99.90;;;;;;5058161;28;20032;-66
2022/04/14 07:53:53;;;;;;;4.57;3.25;;;9.30;99.90;;;;;;5066957;28;20048;-66
2022/04/14 07:56:22;;;;;;;6.90;3.22;;;9.30;99.90;;;;;;5049515;28;20037;-65
2022/04/14 07:58:51;;;;;;;7.38;2.80;;;9.50;99.90;;;;;;5059813;28;20048;-67
2022/04/14 08:01:18;;;;;;;6.20;2.97;;;9.50;99.90;;;;;;5055407;28;20040;-62
2022/04/14 08:03:47;;;;;;;6.85;3.90;;;8.90;99.90;;;;;;5064974;28;20539;-63
2022/04/14 08:06:15;;;;;;;6.15;3.58;;;9.80;99.90;;;;;;5054933;28;20052;-62
2022/04/14 08:08:43;;;;;;;6.03;2.70;;;9.90;99.90;;;;;;5055320;28;20542;-62
2022/04/14 08:11:11;;;;;;;5.93;2.83;;;10.00;99.90;;;;;;5049610;28;20045;-62
2022/04/14 08:13:41;;;;;;;4.53;2.30;;;10.10;99.90;;;;;;5060098;28;20040;-62
2022/04/14 08:16:09;;;;;;;6.65;2.88;;;10.20;99.90;;;;;;5068912;28;20052;-62
2022/04/14 08:18:38;;;;;;;6.40;2.53;;;10.30;99.90;;;;;;5060037;28;20032;-62
2022/04/14 08:21:06;;;;;;;4.00;2.50;;;10.30;99.90;;;;;;5069042;28;20045;-61
2022/04/14 08:23:39;;;;;;;2.90;2.13;;;10.40;99.90;;;;;;5062738;28;20651;-62
2022/04/14 08:26:08;;;;;;;3.85;1.98;;;10.50;99.90;;;;;;5060492;28;20045;-61
2022/04/14 08:28:46;;;;;;;6.53;2.70;;;10.60;99.90;;;;;;5063267;28;20396;-61
2022/04/14 08:31:14;;;;;;;4.22;2.45;;;10.60;99.90;;;;;;5071253;28;20045;-62
2022/04/14 08:33:43;;;;;;;4.85;2.67;;;10.70;99.90;;;;;;5072523;28;20052;-62
2022/04/14 08:36:15;;;;;;;3.08;1.85;;;10.70;99.90;;;;;;5056161;28;20060;-62
2022/04/14 08:38:45;;;;;;;3.78;1.90;;;10.70;99.90;;;;;;5065224;28;20059;-63
2022/04/14 08:41:16;;;;;;;5.10;1.87;;;10.90;99.90;;;;;;5071223;28;20041;-63
2022/04/14 08:44:01;;;;;;;3.53;2.42;;;10.90;99.90;;;;;;5070760;28;20289;-62
2022/04/14 08:46:30;;;;;;;6.60;2.75;;;11.10;99.90;;;;;;5071190;28;20044;-62
2022/04/14 08:48:59;;;;;;;8.73;2.00;;;11.10;99.90;;;;;;5064834;28;20032;-61
2022/04/14 08:51:30;;;;;;;5.25;2.60;;;11.20;99.90;;;;;;5062364;28;20044;-62
2022/04/14 08:53:59;;;;;;;4.20;2.20;;;11.30;99.90;;;;;;5056692;28;20078;-61
2022/04/14 08:56:28;;;;;;;4.55;2.17;;;11.40;99.90;;;;;;5052073;28;20048;-61
2022/04/14 08:58:56;;;;;;;13.07;2.20;;;11.50;99.90;;;;;;5062013;28;20047;-62
2022/04/14 09:01:28;;;;;;;3.47;2.47;;;11.60;99.90;;;;;;5018078;28;20053;-62
2022/04/14 09:03:57;;;;;;;4.65;2.28;;;11.70;99.90;;;;;;5052103;28;20045;-64
2022/04/14 09:06:28;;;;;;;2.92;2.55;;;11.80;99.90;;;;;;5052090;28;20045;-65
2022/04/14 09:09:00;;;;;;;5.00;2.35;;;11.90;99.90;;;;;;5057336;28;20413;-62
2022/04/14 09:11:32;;;;;;;6.20;2.80;;;12.00;99.90;;;;;;5051696;28;20388;-65
2022/04/14 09:14:01;;;;;;;5.18;2.80;;;12.00;99.90;;;;;;5063345;28;20506;-68
2022/04/14 09:16:30;;;;;;;3.72;2.60;;;12.20;99.90;;;;;;5051405;28;20048;-68
2022/04/14 09:19:03;;;;;;;5.90;2.58;;;12.20;99.90;;;;;;5066789;28;20059;-65
2022/04/14 09:21:32;;;;;;;4.22;2.40;;;12.30;99.90;;;;;;5071783;28;20181;-69
2022/04/14 09:24:00;;;;;;;4.70;2.50;;;12.40;99.90;;;;;;5069807;28;20044;-65
2022/04/14 09:26:28;;;;;;;3.85;2.50;;;12.40;99.90;;;;;;5056747;28;20060;-70
2022/04/14 09:29:14;;;;;;;4.03;2.80;;;12.50;99.90;;;;;;5065780;28;20052;-69
2022/04/14 09:31:49;;;;;;;3.15;2.50;;;12.50;99.90;;;;;;5071608;28;20214;-70
2022/04/14 09:34:38;;;;;;;7.35;2.92;;;12.60;99.90;;;;;;5070313;28;20040;-65
2022/04/14 09:37:07;;;;;;;5.85;3.20;;;12.70;99.90;;;;;;5070856;28;20048;-62
2022/04/14 09:39:49;;;;;;;3.97;2.90;;;12.80;99.90;;;;;;5055874;28;20044;-62
2022/04/14 09:42:19;;;;;;;8.02;3.10;;;12.80;99.90;;;;;;5051208;28;20045;-62
2022/04/14 09:44:48;;;;;;;2.67;2.20;;;12.90;99.90;;;;;;5051239;28;20045;-62
2022/04/14 09:47:39;;;;;;;6.63;3.20;;;13.00;99.90;;;;;;5050359;28;20041;-62
2022/04/14 09:50:30;;;;;;;4.70;3.10;;;13.10;99.90;;;;;;5050754;28;20063;-62
2022/04/14 09:53:09;;;;;;;8.07;3.00;;;13.10;99.90;;;;;;5056350;28;20040;-63
2022/04/14 09:55:59;;;;;;;4.97;3.35;;;13.10;99.90;;;;;;5051235;28;20037;-62
2022/04/14 09:58:27;;;;;;;6.18;3.05;;;13.10;99.90;;;;;;5060817;28;20055;-64
2022/04/14 10:00:57;;;;;;;5.00;3.33;;;13.10;99.90;;;;;;5064812;28;20045;-62
2022/04/14 10:03:29;;;;;;;5.40;3.42;;;13.20;99.90;;;;;;5050917;28;20049;-62
2022/04/14 10:06:00;;;;;;;4.88;3.03;;;13.20;99.90;;;;;;5051009;28;20080;-67
2022/04/14 10:08:29;;;;;;;4.90;3.60;;;13.30;99.90;;;;;;5059672;28;20055;-68
2022/04/14 10:11:07;;;;;;;5.37;3.80;;;13.40;99.90;;;;;;5070810;28;20045;-63
2022/04/14 10:13:37;;;;;;;5.63;2.67;;;13.60;99.90;;;;;;5063633;28;20381;-66
2022/04/14 10:16:07;;;;;;;4.38;2.60;;;13.70;99.90;;;;;;5048602;28;20041;-67
2022/04/14 10:18:36;;;;;;;3.50;2.85;;;13.90;99.90;;;;;;5060471;28;20052;-66
2022/04/14 10:21:05;;;;;;;5.20;3.07;;;14.10;99.90;;;;;;5059108;28;20079;-64
2022/04/14 10:23:34;;;;;;;4.63;3.35;;;14.30;99.90;;;;;;5053143;28;20305;-61
2022/04/14 10:26:02;;;;;;;6.70;3.83;;;14.40;99.90;;;;;;5050010;28;20500;-62
2022/04/14 10:28:30;;;;;;;5.65;3.00;;;14.40;99.90;;;;;;5061982;28;20040;-62
2022/04/14 10:30:59;;;;;;;3.58;2.47;;;14.50;99.90;;;;;;5069013;28;20492;-68
2022/04/14 10:33:31;;;;;;;2.58;1.50;;;14.60;99.90;;;;;;5069949;28;20048;-63
2022/04/14 10:35:58;;;;;;;4.30;1.77;;;14.70;99.90;;;;;;5050402;28;20045;-64
2022/04/14 10:38:38;;;;;;;3.97;1.77;;;14.70;99.90;;;;;;5061023;28;20040;-62
2022/04/14 10:41:16;;;;;;;2.53;1.75;;;14.80;99.90;;;;;;5070180;28;20044;-65
2022/04/14 10:43:45;;;;;;;5.07;1.52;;;14.90;99.90;;;;;;5056638;28;20053;-62
2022/04/14 10:46:17;;;;;;;1.30;1.20;;;15.00;99.90;;;;;;5048276;28;20060;-66
2022/04/14 10:48:45;;;;;;;1.88;1.40;;;15.00;99.90;;;;;;5063685;28;20044;-64
2022/04/14 10:51:25;;;;;;;2.95;1.08;;;14.90;99.90;;;;;;5069142;28;20052;-62
2022/04/14 10:54:00;;;;;;;4.10;1.60;;;14.80;99.90;;;;;;5068917;28;20037;-62
2022/04/14 10:56:33;;;;;;;3.38;2.15;;;14.60;99.90;;;;;;5057845;28;20061;-64
2022/04/14 10:59:11;;;;;;;5.00;1.80;;;14.50;99.90;;;;;;5051569;28;20191;-65
2022/04/14 11:01:47;;;;;;;2.28;1.20;;;14.40;99.90;;;;;;5050366;28;20049;-63
2022/04/14 11:04:26;;;;;;;2.80;1.50;;;14.30;99.90;;;;;;5049757;28;20041;-63
2022/04/14 11:07:01;;;;;;;10.23;1.60;;;14.20;99.90;;;;;;5060350;28;20052;-62
2022/04/14 11:09:48;;;;;;;2.65;1.10;;;14.10;99.90;;;;;;5068426;28;20052;-64
2022/04/14 11:12:28;;;;;;;3.72;1.20;;;14.10;99.90;;;;;;5064603;28;20052;-63
2022/04/14 11:15:03;;;;;;;1.58;1.48;;;14.00;99.90;;;;;;5069934;28;20044;-63
2022/04/14 11:17:30;;;;;;;2.78;1.23;;;14.00;99.90;;;;;;5068415;28;20488;-63
2022/04/14 11:20:27;;;;;;;1.77;1.33;;;14.00;99.90;;;;;;5067946;28;20052;-62
2022/04/14 11:23:11;;;;;;;2.90;1.30;;;14.00;99.90;;;;;;5050461;28;20051;-62
2022/04/14 11:28:28;;;;;;;2.45;1.30;;;14.10;99.90;;;;;;5055164;28;20055;-66
2022/04/14 11:31:00;;;;;;;3.50;1.40;;;14.30;99.90;;;;;;5048597;28;20044;-62
2022/04/14 11:33:28;;;;;;;2.35;1.38;;;14.50;99.90;;;;;;5056400;28;20044;-63
2022/04/14 11:36:08;;;;;;;2.92;1.00;;;14.90;99.90;;;;;;5063476;28;20048;-62
2022/04/14 11:39:20;;;;;;;0.90;0.90;;;15.30;99.90;;;;;;5061454;28;20052;-62
2022/04/14 11:41:50;;;;;;;3.42;1.10;;;15.70;99.90;;;;;;5048596;28;20041;-64
2022/04/14 11:44:30;;;;;;;1.25;0.63;;;15.90;99.90;;;;;;5051981;28;20456;-66
2022/04/14 11:47:00;;;;;;;1.17;0.80;;;15.90;99.90;;;;;;5048122;28;20052;-69
2022/04/14 11:49:30;;;;;;;5.13;1.08;;;15.90;99.90;;;;;;5068490;28;20435;-64
2022/04/14 11:52:02;;;;;;;1.40;1.30;;;15.90;99.90;;;;;;5069616;28;20045;-64
2022/04/14 11:54:30;;;;;;;0.68;0.60;;;15.90;99.90;;;;;;5069445;28;20057;-65
2022/04/14 11:57:11;;;;;;;0.65;0.50;;;15.90;99.90;;;;;;5062842;28;20033;-64
2022/04/14 11:59:44;;;;;;;1.88;0.60;;;15.90;99.90;;;;;;5050991;28;20044;-64
2022/04/14 12:02:20;;;;;;;2.58;0.90;;;15.80;99.90;;;;;;5058733;28;20040;-63
2022/04/14 12:04:49;;;;;;;1.55;0.82;;;15.70;99.90;;;;;;5054947;28;20036;-62
2022/04/14 12:07:18;;;;;;;1.55;1.08;;;15.70;99.90;;;;;;5054210;28;20059;-62
2022/04/14 12:09:56;;;;;;;2.10;1.25;;;15.60;99.90;;;;;;5048572;28;20510;-62
2022/04/14 12:12:24;;;;;;;3.28;1.05;;;15.50;99.90;;;;;;5052267;28;20044;-62
2022/04/14 12:14:55;;;;;;;2.17;0.82;;;15.40;99.90;;;;;;5051687;28;20423;-62
2022/04/14 12:17:25;;;;;;;1.13;1.00;;;15.40;99.90;;;;;;5054723;28;20052;-62
2022/04/14 12:19:58;;;;;;;1.35;0.88;;;15.30;99.90;;;;;;5056269;28;20041;-61
2022/04/14 12:22:33;;;;;;;5.15;0.75;;;15.20;99.90;;;;;;5055741;28;20052;-62
2022/04/14 12:25:04;;;;;;;2.03;0.90;;;15.10;99.90;;;;;;5056362;28;20622;-66
2022/04/14 12:27:37;;;;;;;0.65;0.65;;;15.00;99.90;;;;;;5053314;28;20049;-64
2022/04/14 12:30:09;;;;;;;3.58;0.93;;;15.00;99.90;;;;;;5051840;28;20044;-68
2022/04/14 12:32:37;;;;;;;1.35;0.93;;;15.00;99.90;;;;;;5051004;28;20045;-65
2022/04/14 12:35:10;;;;;;;3.25;0.93;;;15.00;99.90;;;;;;5051317;28;20060;-64
2022/04/14 12:37:40;;;;;;;3.10;0.90;;;15.00;99.90;;;;;;5052055;28;20392;-64
2022/04/14 12:40:08;;;;;;;2.45;1.13;;;15.00;99.90;;;;;;5051629;28;20048;-63
2022/04/14 12:42:36;;;;;;;2.35;0.93;;;15.00;99.90;;;;;;5058295;28;20052;-67
2022/04/14 12:45:06;;;;;;;3.65;1.23;;;15.00;99.90;;;;;;5051020;28;20057;-64
2022/04/14 12:47:34;;;;;;;;;;;15.10;99.90;;;;;;5053579;28;20059;-62
2022/04/14 12:50:04;;;;;;;2.13;1.40;;;15.10;99.90;;;;;;5068907;28;19920;-63
2022/04/14 12:52:32;;;;;;;;;;;15.20;99.90;;;;;;5069610;28;20066;-63
2022/04/14 12:55:00;;;;;;;3.00;1.40;;;15.20;99.90;;;;;;5062259;28;19920;-61
2022/04/14 12:57:33;;;;;;;1.95;1.08;;;15.20;99.90;;;;;;5047494;28;20056;-64